createdAt,value
2023-04-02T00:00:50.000Z,1014.59
2023-04-02T00:01:51.000Z,1014.65
2023-04-02T00:02:51.000Z,1014.62
2023-04-02T00:03:52.000Z,1014.59
2023-04-02T00:04:52.000Z,1014.64
2023-04-02T00:05:53.000Z,1014.62
2023-04-02T00:06:53.000Z,1014.67
2023-04-02T00:07:53.000Z,1014.64
2023-04-02T00:08:54.000Z,1014.67
2023-04-02T00:09:54.000Z,1014.69
2023-04-02T00:10:55.000Z,1014.69
2023-04-02T00:11:55.000Z,1014.62
2023-04-02T00:12:56.000Z,1014.66
2023-04-02T00:13:56.000Z,1014.68
2023-04-02T00:14:57.000Z,1014.64
2023-04-02T00:15:57.000Z,1014.67
2023-04-02T00:16:57.000Z,1014.76
2023-04-02T00:17:58.000Z,1014.73
2023-04-02T00:18:58.000Z,1014.7
2023-04-02T00:19:58.000Z,1014.76
2023-04-02T00:20:59.000Z,1014.81
2023-04-02T00:21:59.000Z,1014.86
2023-04-02T00:23:00.000Z,1014.88
2023-04-02T00:24:00.000Z,1014.89
2023-04-02T00:25:01.000Z,1014.93
2023-04-02T00:26:01.000Z,1014.85
2023-04-02T00:27:02.000Z,1014.94
2023-04-02T00:28:02.000Z,1014.97
2023-04-02T00:29:03.000Z,1014.97
2023-04-02T00:30:03.000Z,1015.02
2023-04-02T00:31:03.000Z,1015.05
2023-04-02T00:32:04.000Z,1015.0
2023-04-02T00:33:04.000Z,1015.05
2023-04-02T00:34:05.000Z,1015.02
2023-04-02T00:35:05.000Z,1015.06
2023-04-02T00:36:05.000Z,1015.02
2023-04-02T00:37:06.000Z,1015.08
2023-04-02T00:38:06.000Z,1015.1
2023-04-02T00:39:07.000Z,1015.06
2023-04-02T00:40:07.000Z,1015.12
2023-04-02T00:41:07.000Z,1015.15
2023-04-02T00:42:08.000Z,1015.16
2023-04-02T00:43:08.000Z,1015.2
2023-04-02T00:44:09.000Z,1015.08
2023-04-02T00:45:09.000Z,1015.16
2023-04-02T00:46:09.000Z,1015.22
2023-04-02T00:47:10.000Z,1015.24
2023-04-02T00:48:10.000Z,1015.26
2023-04-02T00:49:11.000Z,1015.23
2023-04-02T00:50:11.000Z,1015.31
2023-04-02T00:51:12.000Z,1015.21
2023-04-02T00:52:12.000Z,1015.33
2023-04-02T00:53:13.000Z,1015.35
2023-04-02T00:54:13.000Z,1015.34
2023-04-02T00:55:13.000Z,1015.34
2023-04-02T00:56:14.000Z,1015.36
2023-04-02T00:57:14.000Z,1015.38
2023-04-02T00:58:15.000Z,1015.41
2023-04-02T00:59:16.000Z,1015.41
2023-04-02T01:00:16.000Z,1015.41
2023-04-02T01:01:17.000Z,1015.39
2023-04-02T01:02:17.000Z,1015.51
2023-04-02T01:03:18.000Z,1015.53
2023-04-02T01:04:18.000Z,1015.51
2023-04-02T01:05:19.000Z,1015.56
2023-04-02T01:06:24.000Z,1015.52
2023-04-02T01:07:24.000Z,1015.5
2023-04-02T01:08:25.000Z,1015.57
2023-04-02T01:09:25.000Z,1015.57
2023-04-02T01:10:26.000Z,1015.6
2023-04-02T01:11:26.000Z,1015.55
2023-04-02T01:12:27.000Z,1015.69
2023-04-02T01:13:27.000Z,1015.6
2023-04-02T01:14:28.000Z,1015.59
2023-04-02T01:15:28.000Z,1015.68
2023-04-02T01:16:28.000Z,1015.71
2023-04-02T01:17:29.000Z,1015.7
2023-04-02T01:18:29.000Z,1015.76
2023-04-02T01:19:30.000Z,1015.77
2023-04-02T01:20:30.000Z,1015.83
2023-04-02T01:21:31.000Z,1015.83
2023-04-02T01:22:31.000Z,1015.84
2023-04-02T01:23:31.000Z,1015.83
2023-04-02T01:24:32.000Z,1015.81
2023-04-02T01:25:32.000Z,1015.89
2023-04-02T01:26:33.000Z,1015.88
2023-04-02T01:27:33.000Z,1015.93
2023-04-02T01:28:34.000Z,1015.9
2023-04-02T01:29:34.000Z,1015.94
2023-04-02T01:30:34.000Z,1015.88
2023-04-02T01:31:40.000Z,1015.97
2023-04-02T01:32:40.000Z,1015.97
2023-04-02T01:33:41.000Z,1015.99
2023-04-02T01:34:41.000Z,1015.99
2023-04-02T01:35:42.000Z,1016.05
2023-04-02T01:36:42.000Z,1015.99
2023-04-02T01:37:43.000Z,1016.0
2023-04-02T01:38:43.000Z,1016.11
2023-04-02T01:39:43.000Z,1016.09
2023-04-02T01:40:44.000Z,1016.11
2023-04-02T01:41:45.000Z,1016.12
2023-04-02T01:42:45.000Z,1016.17
2023-04-02T01:43:45.000Z,1016.14
2023-04-02T01:44:46.000Z,1016.25
2023-04-02T01:45:47.000Z,1016.21
2023-04-02T01:46:47.000Z,1016.24
2023-04-02T01:47:48.000Z,1016.23
2023-04-02T01:48:48.000Z,1016.28
2023-04-02T01:49:49.000Z,1016.25
2023-04-02T01:50:49.000Z,1016.39
2023-04-02T01:51:50.000Z,1016.37
2023-04-02T01:52:50.000Z,1016.31
2023-04-02T01:53:51.000Z,1016.38
2023-04-02T01:54:51.000Z,1016.4
2023-04-02T01:55:51.000Z,1016.36
2023-04-02T01:56:52.000Z,1016.39
2023-04-02T01:57:57.000Z,1016.42
2023-04-02T01:58:58.000Z,1016.46
2023-04-02T01:59:58.000Z,1016.52
2023-04-02T02:00:59.000Z,1016.52
2023-04-02T02:01:59.000Z,1016.45
2023-04-02T02:03:05.000Z,1016.47
2023-04-02T02:04:05.000Z,1016.5
2023-04-02T02:05:05.000Z,1016.5
2023-04-02T02:06:06.000Z,1016.47
2023-04-02T02:07:06.000Z,1016.48
2023-04-02T02:08:07.000Z,1016.52
2023-04-02T02:09:07.000Z,1016.49
2023-04-02T02:10:13.000Z,1016.52
2023-04-02T02:11:13.000Z,1016.57
2023-04-02T02:12:14.000Z,1016.55
2023-04-02T02:13:14.000Z,1016.55
2023-04-02T02:14:14.000Z,1016.6
2023-04-02T02:15:15.000Z,1016.67
2023-04-02T02:16:15.000Z,1016.65
2023-04-02T02:17:16.000Z,1016.59
2023-04-02T02:18:16.000Z,1016.67
2023-04-02T02:19:17.000Z,1016.65
2023-04-02T02:20:17.000Z,1016.78
2023-04-02T02:21:18.000Z,1016.79
2023-04-02T02:22:18.000Z,1016.79
2023-04-02T02:23:19.000Z,1016.77
2023-04-02T02:24:19.000Z,1016.73
2023-04-02T02:25:20.000Z,1016.82
2023-04-02T02:26:20.000Z,1016.85
2023-04-02T02:27:20.000Z,1016.85
2023-04-02T02:28:21.000Z,1016.92
2023-04-02T02:29:21.000Z,1016.93
2023-04-02T02:30:22.000Z,1016.95
2023-04-02T02:31:22.000Z,1017.0
2023-04-02T02:32:23.000Z,1016.99
2023-04-02T02:33:23.000Z,1016.98
2023-04-02T02:34:24.000Z,1017.07
2023-04-02T02:35:24.000Z,1017.04
2023-04-02T02:36:25.000Z,1017.11
2023-04-02T02:37:25.000Z,1017.1
2023-04-02T02:38:26.000Z,1017.08
2023-04-02T02:39:26.000Z,1017.1
2023-04-02T02:40:27.000Z,1017.16
2023-04-02T02:41:27.000Z,1017.2
2023-04-02T02:42:27.000Z,1017.23
2023-04-02T02:43:28.000Z,1017.14
2023-04-02T02:44:28.000Z,1017.18
2023-04-02T02:45:29.000Z,1017.22
2023-04-02T02:46:29.000Z,1017.21
2023-04-02T02:47:30.000Z,1017.25
2023-04-02T02:48:30.000Z,1017.29
2023-04-02T02:49:30.000Z,1017.29
2023-04-02T02:50:31.000Z,1017.32
2023-04-02T02:51:31.000Z,1017.39
2023-04-02T02:52:32.000Z,1017.37
2023-04-02T02:53:32.000Z,1017.47
2023-04-02T02:54:32.000Z,1017.46
2023-04-02T02:55:33.000Z,1017.45
2023-04-02T02:56:33.000Z,1017.56
2023-04-02T02:57:34.000Z,1017.59
2023-04-02T02:58:34.000Z,1017.63
2023-04-02T02:59:34.000Z,1017.59
2023-04-02T03:00:35.000Z,1017.56
2023-04-02T03:01:35.000Z,1017.62
2023-04-02T03:02:36.000Z,1017.65
2023-04-02T03:03:36.000Z,1017.66
2023-04-02T03:04:36.000Z,1017.59
2023-04-02T03:05:37.000Z,1017.66
2023-04-02T03:06:37.000Z,1017.63
2023-04-02T03:07:38.000Z,1017.69
2023-04-02T03:08:38.000Z,1017.69
2023-04-02T03:09:38.000Z,1017.74
2023-04-02T03:10:39.000Z,1017.72
2023-04-02T03:11:39.000Z,1017.7
2023-04-02T03:12:40.000Z,1017.75
2023-04-02T03:13:40.000Z,1017.8
2023-04-02T03:14:41.000Z,1017.79
2023-04-02T03:15:41.000Z,1017.85
2023-04-02T03:16:41.000Z,1017.84
2023-04-02T03:17:42.000Z,1017.88
2023-04-02T03:18:42.000Z,1017.84
2023-04-02T03:19:43.000Z,1017.91
2023-04-02T03:20:43.000Z,1017.98
2023-04-02T03:21:44.000Z,1017.99
2023-04-02T03:22:44.000Z,1018.05
2023-04-02T03:23:49.000Z,1017.97
2023-04-02T03:24:50.000Z,1018.07
2023-04-02T03:25:50.000Z,1018.1
2023-04-02T03:26:51.000Z,1018.06
2023-04-02T03:27:51.000Z,1018.11
2023-04-02T03:28:52.000Z,1018.16
2023-04-02T03:29:52.000Z,1018.09
2023-04-02T03:30:53.000Z,1018.11
2023-04-02T03:31:53.000Z,1018.19
2023-04-02T03:32:54.000Z,1018.17
2023-04-02T03:33:54.000Z,1018.16
2023-04-02T03:34:54.000Z,1018.22
2023-04-02T03:35:55.000Z,1018.18
2023-04-02T03:36:55.000Z,1018.21
2023-04-02T03:37:55.000Z,1018.27
2023-04-02T03:38:56.000Z,1018.28
2023-04-02T03:39:57.000Z,1018.31
2023-04-02T03:40:57.000Z,1018.29
2023-04-02T03:41:57.000Z,1018.31
2023-04-02T03:42:58.000Z,1018.23
2023-04-02T03:43:58.000Z,1018.39
2023-04-02T03:44:58.000Z,1018.36
2023-04-02T03:45:59.000Z,1018.4
2023-04-02T03:46:59.000Z,1018.39
2023-04-02T03:48:00.000Z,1018.42
2023-04-02T03:49:00.000Z,1018.54
2023-04-02T03:50:01.000Z,1018.52
2023-04-02T03:51:01.000Z,1018.48
2023-04-02T03:52:01.000Z,1018.5
2023-04-02T03:53:02.000Z,1018.53
2023-04-02T03:54:02.000Z,1018.59
2023-04-02T03:55:02.000Z,1018.64
2023-04-02T03:56:03.000Z,1018.65
2023-04-02T03:57:03.000Z,1018.62
2023-04-02T03:58:04.000Z,1018.68
2023-04-02T03:59:04.000Z,1018.72
2023-04-02T04:00:04.000Z,1018.68
2023-04-02T04:01:05.000Z,1018.75
2023-04-02T04:02:05.000Z,1018.78
2023-04-02T04:03:06.000Z,1018.87
2023-04-02T04:04:06.000Z,1018.83
2023-04-02T04:05:07.000Z,1018.81
2023-04-02T04:06:07.000Z,1018.87
2023-04-02T04:07:07.000Z,1018.88
2023-04-02T04:08:08.000Z,1018.95
2023-04-02T04:09:08.000Z,1018.96
2023-04-02T04:10:08.000Z,1018.95
2023-04-02T04:11:09.000Z,1019.01
2023-04-02T04:12:09.000Z,1019.13
2023-04-02T04:13:10.000Z,1019.03
2023-04-02T04:14:10.000Z,1019.07
2023-04-02T04:15:11.000Z,1019.12
2023-04-02T04:16:11.000Z,1019.11
2023-04-02T04:17:11.000Z,1019.17
2023-04-02T04:18:12.000Z,1019.21
2023-04-02T04:19:12.000Z,1019.2
2023-04-02T04:20:13.000Z,1019.23
2023-04-02T04:21:13.000Z,1019.24
2023-04-02T04:22:13.000Z,1019.28
2023-04-02T04:23:14.000Z,1019.36
2023-04-02T04:24:14.000Z,1019.36
2023-04-02T04:25:14.000Z,1019.37
2023-04-02T04:26:15.000Z,1019.39
2023-04-02T04:27:15.000Z,1019.36
2023-04-02T04:28:16.000Z,1019.51
2023-04-02T04:29:16.000Z,1019.41
2023-04-02T04:30:16.000Z,1019.44
2023-04-02T04:31:17.000Z,1019.53
2023-04-02T04:32:17.000Z,1019.57
2023-04-02T04:33:18.000Z,1019.61
2023-04-02T04:34:18.000Z,1019.62
2023-04-02T04:35:18.000Z,1019.63
2023-04-02T04:36:19.000Z,1019.69
2023-04-02T04:37:19.000Z,1019.65
2023-04-02T04:38:20.000Z,1019.71
2023-04-02T04:39:20.000Z,1019.74
2023-04-02T04:40:20.000Z,1019.74
2023-04-02T04:41:21.000Z,1019.79
2023-04-02T04:42:21.000Z,1019.82
2023-04-02T04:43:22.000Z,1019.84
2023-04-02T04:44:22.000Z,1019.82
2023-04-02T04:45:22.000Z,1019.78
2023-04-02T04:46:23.000Z,1019.87
2023-04-02T04:47:23.000Z,1019.92
2023-04-02T04:48:24.000Z,1019.9
2023-04-02T04:49:24.000Z,1019.97
2023-04-02T04:50:24.000Z,1019.99
2023-04-02T04:51:25.000Z,1020.06
2023-04-02T04:52:25.000Z,1020.04
2023-04-02T04:53:26.000Z,1020.05
2023-04-02T04:54:26.000Z,1020.1
2023-04-02T04:55:26.000Z,1020.02
2023-04-02T04:56:27.000Z,1020.06
2023-04-02T04:57:27.000Z,1020.12
2023-04-02T04:58:28.000Z,1020.15
2023-04-02T04:59:28.000Z,1020.17
2023-04-02T05:00:29.000Z,1020.2
2023-04-02T05:01:29.000Z,1020.29
2023-04-02T05:02:30.000Z,1020.27
2023-04-02T05:03:30.000Z,1020.28
2023-04-02T05:04:30.000Z,1020.28
2023-04-02T05:05:31.000Z,1020.4
2023-04-02T05:06:31.000Z,1020.35
2023-04-02T05:07:32.000Z,1020.38
2023-04-02T05:08:32.000Z,1020.47
2023-04-02T05:09:32.000Z,1020.41
2023-04-02T05:10:33.000Z,1020.47
2023-04-02T05:11:33.000Z,1020.5
2023-04-02T05:12:34.000Z,1020.47
2023-04-02T05:13:34.000Z,1020.49
2023-04-02T05:14:34.000Z,1020.59
2023-04-02T05:15:35.000Z,1020.62
2023-04-02T05:16:35.000Z,1020.6
2023-04-02T05:17:36.000Z,1020.6
2023-04-02T05:18:36.000Z,1020.62
2023-04-02T05:19:36.000Z,1020.71
2023-04-02T05:20:37.000Z,1020.76
2023-04-02T05:21:37.000Z,1020.75
2023-04-02T05:22:38.000Z,1020.79
2023-04-02T05:23:38.000Z,1020.82
2023-04-02T05:24:39.000Z,1020.84
2023-04-02T05:25:39.000Z,1020.94
2023-04-02T05:26:39.000Z,1020.97
2023-04-02T05:27:40.000Z,1020.91
2023-04-02T05:28:40.000Z,1020.98
2023-04-02T05:29:41.000Z,1021.03
2023-04-02T05:30:41.000Z,1021.04
2023-04-02T05:31:41.000Z,1021.09
2023-04-02T05:32:42.000Z,1021.07
2023-04-02T05:33:42.000Z,1021.19
2023-04-02T05:34:43.000Z,1021.15
2023-04-02T05:35:43.000Z,1021.19
2023-04-02T05:36:43.000Z,1021.18
2023-04-02T05:37:44.000Z,1021.21
2023-04-02T05:38:44.000Z,1021.24
2023-04-02T05:39:45.000Z,1021.24
2023-04-02T05:40:45.000Z,1021.25
2023-04-02T05:41:45.000Z,1021.24
2023-04-02T05:42:46.000Z,1021.29
2023-04-02T05:43:46.000Z,1021.32
2023-04-02T05:44:46.000Z,1021.33
2023-04-02T05:45:47.000Z,1021.29
2023-04-02T05:46:47.000Z,1021.41
2023-04-02T05:47:47.000Z,1021.33
2023-04-02T05:48:48.000Z,1021.39
2023-04-02T05:49:48.000Z,1021.38
2023-04-02T05:50:49.000Z,1021.44
2023-04-02T05:51:49.000Z,1021.43
2023-04-02T05:52:49.000Z,1021.5
2023-04-02T05:53:50.000Z,1021.49
2023-04-02T05:54:50.000Z,1021.52
2023-04-02T05:55:51.000Z,1021.56
2023-04-02T05:56:51.000Z,1021.6
2023-04-02T05:57:51.000Z,1021.58
2023-04-02T05:58:52.000Z,1021.63
2023-04-02T05:59:52.000Z,1021.62
2023-04-02T06:00:53.000Z,1021.68
2023-04-02T06:01:53.000Z,1021.71
2023-04-02T06:02:53.000Z,1021.7
2023-04-02T06:03:54.000Z,1021.7
2023-04-02T06:04:54.000Z,1021.74
2023-04-02T06:05:55.000Z,1021.79
2023-04-02T06:06:55.000Z,1021.86
2023-04-02T06:07:56.000Z,1021.84
2023-04-02T06:08:57.000Z,1021.9
2023-04-02T06:09:57.000Z,1021.87
2023-04-02T06:10:58.000Z,1021.9
2023-04-02T06:11:58.000Z,1021.92
2023-04-02T06:12:58.000Z,1021.96
2023-04-02T06:13:59.000Z,1021.98
2023-04-02T06:14:59.000Z,1022.03
2023-04-02T06:15:59.000Z,1022.07
2023-04-02T06:17:00.000Z,1021.99
2023-04-02T06:18:00.000Z,1022.06
2023-04-02T06:19:01.000Z,1022.03
2023-04-02T06:20:01.000Z,1022.04
2023-04-02T06:21:02.000Z,1022.13
2023-04-02T06:22:02.000Z,1022.15
2023-04-02T06:23:02.000Z,1022.21
2023-04-02T06:24:03.000Z,1022.15
2023-04-02T06:25:03.000Z,1022.11
2023-04-02T06:26:04.000Z,1022.24
2023-04-02T06:27:04.000Z,1022.17
2023-04-02T06:28:04.000Z,1022.19
2023-04-02T06:29:05.000Z,1022.23
2023-04-02T06:30:05.000Z,1022.23
2023-04-02T06:31:06.000Z,1022.31
2023-04-02T06:32:06.000Z,1022.3
2023-04-02T06:33:06.000Z,1022.3
2023-04-02T06:34:07.000Z,1022.34
2023-04-02T06:35:07.000Z,1022.37
2023-04-02T06:36:08.000Z,1022.4
2023-04-02T06:37:08.000Z,1022.41
2023-04-02T06:38:08.000Z,1022.41
2023-04-02T06:39:09.000Z,1022.45
2023-04-02T06:40:09.000Z,1022.49
2023-04-02T06:41:09.000Z,1022.46
2023-04-02T06:42:10.000Z,1022.54
2023-04-02T06:43:10.000Z,1022.55
2023-04-02T06:44:11.000Z,1022.6
2023-04-02T06:45:11.000Z,1022.63
2023-04-02T06:46:12.000Z,1022.65
2023-04-02T06:47:12.000Z,1022.69
2023-04-02T06:48:12.000Z,1022.66
2023-04-02T06:49:13.000Z,1022.69
2023-04-02T06:50:13.000Z,1022.76
2023-04-02T06:51:14.000Z,1022.74
2023-04-02T06:52:14.000Z,1022.75
2023-04-02T06:53:15.000Z,1022.81
2023-04-02T06:54:15.000Z,1022.76
2023-04-02T06:55:15.000Z,1022.74
2023-04-02T06:56:16.000Z,1022.76
2023-04-02T06:57:16.000Z,1022.78
2023-04-02T06:58:16.000Z,1022.87
2023-04-02T06:59:17.000Z,1022.88
2023-04-02T07:00:17.000Z,1022.91
2023-04-02T07:01:18.000Z,1022.86
2023-04-02T07:02:18.000Z,1022.94
2023-04-02T07:03:18.000Z,1022.95
2023-04-02T07:04:19.000Z,1023.0
2023-04-02T07:05:19.000Z,1022.95
2023-04-02T07:06:20.000Z,1023.01
2023-04-02T07:07:20.000Z,1022.98
2023-04-02T07:08:20.000Z,1023.0
2023-04-02T07:09:21.000Z,1023.02
2023-04-02T07:10:21.000Z,1023.04
2023-04-02T07:11:21.000Z,1023.12
2023-04-02T07:12:22.000Z,1023.08
2023-04-02T07:13:22.000Z,1023.1
2023-04-02T07:14:23.000Z,1023.12
2023-04-02T07:15:23.000Z,1023.11
2023-04-02T07:16:23.000Z,1023.15
2023-04-02T07:17:24.000Z,1023.21
2023-04-02T07:18:24.000Z,1023.16
2023-04-02T07:19:25.000Z,1023.22
2023-04-02T07:20:25.000Z,1023.22
2023-04-02T07:21:25.000Z,1023.23
2023-04-02T07:22:26.000Z,1023.26
2023-04-02T07:23:26.000Z,1023.28
2023-04-02T07:24:26.000Z,1023.28
2023-04-02T07:25:27.000Z,1023.26
2023-04-02T07:26:27.000Z,1023.29
2023-04-02T07:27:28.000Z,1023.35
2023-04-02T07:28:28.000Z,1023.33
2023-04-02T07:29:28.000Z,1023.38
2023-04-02T07:30:29.000Z,1023.42
2023-04-02T07:31:29.000Z,1023.43
2023-04-02T07:32:29.000Z,1023.47
2023-04-02T07:33:30.000Z,1023.46
2023-04-02T07:34:31.000Z,1023.47
2023-04-02T07:35:32.000Z,1023.52
2023-04-02T07:36:32.000Z,1023.53
2023-04-02T07:37:32.000Z,1023.56
2023-04-02T07:38:33.000Z,1023.54
2023-04-02T07:39:33.000Z,1023.61
2023-04-02T07:40:33.000Z,1023.68
2023-04-02T07:41:34.000Z,1023.7
2023-04-02T07:42:34.000Z,1023.7
2023-04-02T07:43:35.000Z,1023.69
2023-04-02T07:44:35.000Z,1023.75
2023-04-02T07:45:36.000Z,1023.75
2023-04-02T07:46:36.000Z,1023.79
2023-04-02T07:47:36.000Z,1023.75
2023-04-02T07:48:37.000Z,1023.78
2023-04-02T07:49:37.000Z,1023.82
2023-04-02T07:50:37.000Z,1023.86
2023-04-02T07:51:38.000Z,1023.87
2023-04-02T07:52:38.000Z,1023.82
2023-04-02T07:53:39.000Z,1023.88
2023-04-02T07:54:39.000Z,1023.92
2023-04-02T07:55:39.000Z,1023.9
2023-04-02T07:56:40.000Z,1023.92
2023-04-02T07:57:40.000Z,1023.97
2023-04-02T07:58:41.000Z,1024.02
2023-04-02T07:59:41.000Z,1024.0
2023-04-02T08:00:41.000Z,1024.07
2023-04-02T08:01:42.000Z,1024.18
2023-04-02T08:02:42.000Z,1024.14
2023-04-02T08:03:43.000Z,1024.19
2023-04-02T08:04:43.000Z,1024.23
2023-04-02T08:05:43.000Z,1024.23
2023-04-02T08:06:44.000Z,1024.27
2023-04-02T08:07:44.000Z,1024.25
2023-04-02T08:08:44.000Z,1024.33
2023-04-02T08:09:45.000Z,1024.32
2023-04-02T08:10:45.000Z,1024.34
2023-04-02T08:11:46.000Z,1024.34
2023-04-02T08:12:46.000Z,1024.39
2023-04-02T08:13:46.000Z,1024.39
2023-04-02T08:14:47.000Z,1024.43
2023-04-02T08:15:47.000Z,1024.42
2023-04-02T08:16:47.000Z,1024.42
2023-04-02T08:17:48.000Z,1024.42
2023-04-02T08:18:48.000Z,1024.45
2023-04-02T08:19:49.000Z,1024.49
2023-04-02T08:20:49.000Z,1024.49
2023-04-02T08:21:49.000Z,1024.51
2023-04-02T08:22:50.000Z,1024.62
2023-04-02T08:23:50.000Z,1024.63
2023-04-02T08:24:50.000Z,1024.61
2023-04-02T08:25:51.000Z,1024.65
2023-04-02T08:26:51.000Z,1024.62
2023-04-02T08:27:51.000Z,1024.68
2023-04-02T08:28:52.000Z,1024.73
2023-04-02T08:29:52.000Z,1024.76
2023-04-02T08:30:53.000Z,1024.72
2023-04-02T08:31:53.000Z,1024.7
2023-04-02T08:32:53.000Z,1024.71
2023-04-02T08:33:54.000Z,1024.73
2023-04-02T08:34:54.000Z,1024.72
2023-04-02T08:35:55.000Z,1024.69
2023-04-02T08:36:55.000Z,1024.78
2023-04-02T08:37:55.000Z,1024.75
2023-04-02T08:38:56.000Z,1024.79
2023-04-02T08:39:56.000Z,1024.82
2023-04-02T08:40:56.000Z,1024.84
2023-04-02T08:41:57.000Z,1024.86
2023-04-02T08:42:57.000Z,1024.87
2023-04-02T08:43:57.000Z,1024.91
2023-04-02T08:44:58.000Z,1024.9
2023-04-02T08:45:58.000Z,1024.9
2023-04-02T08:46:59.000Z,1024.92
2023-04-02T08:47:59.000Z,1024.9
2023-04-02T08:48:59.000Z,1024.92
2023-04-02T08:50:00.000Z,1024.97
2023-04-02T08:51:00.000Z,1025.0
2023-04-02T08:52:00.000Z,1025.01
2023-04-02T08:53:01.000Z,1025.05
2023-04-02T08:54:01.000Z,1025.02
2023-04-02T08:55:02.000Z,1025.05
2023-04-02T08:56:02.000Z,1025.05
2023-04-02T08:57:02.000Z,1025.06
2023-04-02T08:58:03.000Z,1025.13
2023-04-02T08:59:03.000Z,1025.12
2023-04-02T09:00:03.000Z,1025.15
2023-04-02T09:01:04.000Z,1025.15
2023-04-02T09:02:04.000Z,1025.23
2023-04-02T09:03:05.000Z,1025.2
2023-04-02T09:04:05.000Z,1025.15
2023-04-02T09:05:05.000Z,1025.22
2023-04-02T09:06:06.000Z,1025.22
2023-04-02T09:07:06.000Z,1025.25
2023-04-02T09:08:07.000Z,1025.22
2023-04-02T09:09:07.000Z,1025.28
2023-04-02T09:10:07.000Z,1025.28
2023-04-02T09:11:08.000Z,1025.26
2023-04-02T09:12:09.000Z,1025.31
2023-04-02T09:13:10.000Z,1025.31
2023-04-02T09:14:10.000Z,1025.3
2023-04-02T09:15:10.000Z,1025.38
2023-04-02T09:16:11.000Z,1025.32
2023-04-02T09:17:11.000Z,1025.38
2023-04-02T09:18:11.000Z,1025.42
2023-04-02T09:19:12.000Z,1025.41
2023-04-02T09:20:12.000Z,1025.47
2023-04-02T09:21:12.000Z,1025.46
2023-04-02T09:22:13.000Z,1025.48
2023-04-02T09:23:13.000Z,1025.55
2023-04-02T09:24:13.000Z,1025.55
2023-04-02T09:25:14.000Z,1025.55
2023-04-02T09:26:14.000Z,1025.55
2023-04-02T09:27:15.000Z,1025.61
2023-04-02T09:28:15.000Z,1025.55
2023-04-02T09:29:15.000Z,1025.63
2023-04-02T09:30:16.000Z,1025.63
2023-04-02T09:31:16.000Z,1025.66
2023-04-02T09:32:16.000Z,1025.68
2023-04-02T09:33:17.000Z,1025.65
2023-04-02T09:34:17.000Z,1025.69
2023-04-02T09:35:17.000Z,1025.7
2023-04-02T09:36:18.000Z,1025.72
2023-04-02T09:37:18.000Z,1025.76
2023-04-02T09:38:19.000Z,1025.75
2023-04-02T09:39:19.000Z,1025.76
2023-04-02T09:40:19.000Z,1025.67
2023-04-02T09:41:20.000Z,1025.82
2023-04-02T09:42:20.000Z,1025.84
2023-04-02T09:43:20.000Z,1025.84
2023-04-02T09:44:21.000Z,1025.83
2023-04-02T09:45:21.000Z,1025.89
2023-04-02T09:46:22.000Z,1025.89
2023-04-02T09:47:22.000Z,1025.87
2023-04-02T09:48:22.000Z,1025.89
2023-04-02T09:49:23.000Z,1025.92
2023-04-02T09:50:23.000Z,1025.97
2023-04-02T09:51:23.000Z,1025.97
2023-04-02T09:52:24.000Z,1026.07
2023-04-02T09:53:24.000Z,1025.98
2023-04-02T09:54:24.000Z,1026.02
2023-04-02T09:55:25.000Z,1026.01
2023-04-02T09:56:25.000Z,1025.98
2023-04-02T09:57:25.000Z,1026.03
2023-04-02T09:58:26.000Z,1026.01
2023-04-02T09:59:26.000Z,1026.01
2023-04-02T10:00:27.000Z,1026.08
2023-04-02T10:01:27.000Z,1026.09
2023-04-02T10:02:27.000Z,1026.16
2023-04-02T10:03:28.000Z,1026.12
2023-04-02T10:04:28.000Z,1026.17
2023-04-02T10:05:28.000Z,1026.14
2023-04-02T10:06:29.000Z,1026.29
2023-04-02T10:07:29.000Z,1026.19
2023-04-02T10:08:29.000Z,1026.25
2023-04-02T10:09:30.000Z,1026.27
2023-04-02T10:10:30.000Z,1026.26
2023-04-02T10:11:30.000Z,1026.3
2023-04-02T10:12:31.000Z,1026.29
2023-04-02T10:13:31.000Z,1026.26
2023-04-02T10:14:32.000Z,1026.35
2023-04-02T10:15:32.000Z,1026.38
2023-04-02T10:16:32.000Z,1026.34
2023-04-02T10:17:33.000Z,1026.36
2023-04-02T10:18:38.000Z,1026.38
2023-04-02T10:19:38.000Z,1026.4
2023-04-02T10:20:39.000Z,1026.44
2023-04-02T10:21:39.000Z,1026.36
2023-04-02T10:22:39.000Z,1026.46
2023-04-02T10:23:40.000Z,1026.45
2023-04-02T10:24:40.000Z,1026.47
2023-04-02T10:25:41.000Z,1026.53
2023-04-02T10:26:41.000Z,1026.49
2023-04-02T10:27:41.000Z,1026.5
2023-04-02T10:28:42.000Z,1026.54
2023-04-02T10:29:42.000Z,1026.54
2023-04-02T10:30:42.000Z,1026.53
2023-04-02T10:31:43.000Z,1026.5
2023-04-02T10:32:43.000Z,1026.57
2023-04-02T10:33:43.000Z,1026.54
2023-04-02T10:34:44.000Z,1026.54
2023-04-02T10:35:44.000Z,1026.58
2023-04-02T10:36:44.000Z,1026.64
2023-04-02T10:37:45.000Z,1026.63
2023-04-02T10:38:45.000Z,1026.65
2023-04-02T10:39:45.000Z,1026.67
2023-04-02T10:40:46.000Z,1026.62
2023-04-02T10:41:46.000Z,1026.69
2023-04-02T10:42:48.000Z,1026.69
2023-04-02T10:43:48.000Z,1026.73
2023-04-02T10:44:48.000Z,1026.78
2023-04-02T10:45:49.000Z,1026.75
2023-04-02T10:46:49.000Z,1026.74
2023-04-02T10:47:50.000Z,1026.75
2023-04-02T10:48:50.000Z,1026.8
2023-04-02T10:49:50.000Z,1026.83
2023-04-02T10:50:51.000Z,1026.8
2023-04-02T10:51:51.000Z,1026.88
2023-04-02T10:52:51.000Z,1026.84
2023-04-02T10:53:52.000Z,1026.83
2023-04-02T10:54:52.000Z,1026.87
2023-04-02T10:55:52.000Z,1026.87
2023-04-02T10:56:53.000Z,1026.85
2023-04-02T10:57:53.000Z,1026.92
2023-04-02T10:58:54.000Z,1026.89
2023-04-02T10:59:54.000Z,1026.88
2023-04-02T11:00:54.000Z,1026.93
2023-04-02T11:01:55.000Z,1026.93
2023-04-02T11:02:55.000Z,1026.91
2023-04-02T11:03:55.000Z,1026.96
2023-04-02T11:04:56.000Z,1026.92
2023-04-02T11:05:56.000Z,1026.96
2023-04-02T11:06:57.000Z,1027.0
2023-04-02T11:07:57.000Z,1027.01
2023-04-02T11:08:57.000Z,1027.02
2023-04-02T11:09:58.000Z,1027.04
2023-04-02T11:10:58.000Z,1027.1
2023-04-02T11:11:58.000Z,1027.18
2023-04-02T11:12:59.000Z,1027.14
2023-04-02T11:13:59.000Z,1027.22
2023-04-02T11:15:00.000Z,1027.22
2023-04-02T11:16:00.000Z,1027.25
2023-04-02T11:17:01.000Z,1027.24
2023-04-02T11:18:01.000Z,1027.26
2023-04-02T11:19:02.000Z,1027.27
2023-04-02T11:20:02.000Z,1027.34
2023-04-02T11:21:02.000Z,1027.33
2023-04-02T11:22:03.000Z,1027.32
2023-04-02T11:23:03.000Z,1027.35
2023-04-02T11:24:04.000Z,1027.39
2023-04-02T11:25:04.000Z,1027.38
2023-04-02T11:26:04.000Z,1027.34
2023-04-02T11:27:05.000Z,1027.4
2023-04-02T11:28:05.000Z,1027.44
2023-04-02T11:29:06.000Z,1027.4
2023-04-02T11:30:06.000Z,1027.35
2023-04-02T11:31:06.000Z,1027.44
2023-04-02T11:32:07.000Z,1027.39
2023-04-02T11:33:07.000Z,1027.47
2023-04-02T11:34:08.000Z,1027.47
2023-04-02T11:35:08.000Z,1027.46
2023-04-02T11:36:08.000Z,1027.46
2023-04-02T11:37:09.000Z,1027.52
2023-04-02T11:38:09.000Z,1027.5
2023-04-02T11:39:09.000Z,1027.58
2023-04-02T11:40:10.000Z,1027.58
2023-04-02T11:41:10.000Z,1027.57
2023-04-02T11:42:11.000Z,1027.55
2023-04-02T11:43:11.000Z,1027.57
2023-04-02T11:44:11.000Z,1027.55
2023-04-02T11:45:12.000Z,1027.56
2023-04-02T11:46:12.000Z,1027.58
2023-04-02T11:47:13.000Z,1027.58
2023-04-02T11:48:13.000Z,1027.6
2023-04-02T11:49:13.000Z,1027.68
2023-04-02T11:50:14.000Z,1027.6
2023-04-02T11:51:14.000Z,1027.65
2023-04-02T11:52:14.000Z,1027.67
2023-04-02T11:53:15.000Z,1027.63
2023-04-02T11:54:20.000Z,1027.67
2023-04-02T11:55:20.000Z,1027.59
2023-04-02T11:56:21.000Z,1027.69
2023-04-02T11:57:21.000Z,1027.66
2023-04-02T11:58:22.000Z,1027.74
2023-04-02T11:59:22.000Z,1027.79
2023-04-02T12:00:22.000Z,1027.78
2023-04-02T12:01:23.000Z,1027.83
2023-04-02T12:02:23.000Z,1027.83
2023-04-02T12:03:23.000Z,1027.86
2023-04-02T12:04:24.000Z,1027.85
2023-04-02T12:05:24.000Z,1027.81
2023-04-02T12:06:24.000Z,1027.84
2023-04-02T12:07:25.000Z,1027.77
2023-04-02T12:08:25.000Z,1027.75
2023-04-02T12:09:25.000Z,1027.85
2023-04-02T12:10:26.000Z,1027.82
2023-04-02T12:11:26.000Z,1027.85
2023-04-02T12:12:27.000Z,1027.81
2023-04-02T12:13:27.000Z,1027.9